createdAt,value
2019-05-09T00:01:13.997Z,96.10
2019-05-09T00:06:17.610Z,95.90
2019-05-09T00:11:21.582Z,95.60
2019-05-09T00:16:25.573Z,95.70
2019-05-09T00:21:38.489Z,95.70
2019-05-09T00:26:44.234Z,95.40
2019-05-09T00:31:55.511Z,95.30
2019-05-09T00:36:59.422Z,95.60
2019-05-09T00:42:04.369Z,95.30
2019-05-09T00:47:33.741Z,95.30
2019-05-09T00:52:37.984Z,95.20
2019-05-09T00:57:43.971Z,95.30
2019-05-09T01:02:48.542Z,95.40
2019-05-09T01:07:53.771Z,95.10
2019-05-09T01:12:58.347Z,95.10
2019-05-09T01:18:04.433Z,95.40
2019-05-09T01:23:08.527Z,94.90
2019-05-09T01:28:13.925Z,95.10
2019-05-09T01:33:40.490Z,95.20
2019-05-09T01:38:44.550Z,95.00
2019-05-09T01:43:48.786Z,94.50
2019-05-09T01:48:53.855Z,94.20
2019-05-09T01:53:58.897Z,94.50
2019-05-09T01:59:03.222Z,94.40
2019-05-09T02:04:07.409Z,94.70
2019-05-09T02:09:13.880Z,94.60
2019-05-09T02:14:23.877Z,95.10
2019-05-09T02:19:33.607Z,95.50
2019-05-09T02:24:37.694Z,95.10
2019-05-09T02:29:43.817Z,95.10
2019-05-09T02:34:48.083Z,95.20
2019-05-09T02:39:52.315Z,95.60
2019-05-09T02:44:59.239Z,95.50
2019-05-09T02:50:02.156Z,95.70
2019-05-09T02:55:09.981Z,95.80
2019-05-09T03:00:20.831Z,95.80
2019-05-09T03:05:25.158Z,96.20
2019-05-09T03:10:29.557Z,95.60
2019-05-09T03:15:33.954Z,95.80
2019-05-09T03:20:54.852Z,95.30
2019-05-09T03:25:59.057Z,95.30
2019-05-09T03:31:03.136Z,94.90
2019-05-09T03:36:07.780Z,95.20
2019-05-09T03:41:11.303Z,94.90
2019-05-09T03:46:32.890Z,94.60
2019-05-09T03:51:37.858Z,94.50
2019-05-09T03:56:44.502Z,94.80
2019-05-09T04:01:50.148Z,95.10
2019-05-09T04:06:52.301Z,95.00
2019-05-09T04:11:55.277Z,95.00
2019-05-09T04:16:58.443Z,95.50
2019-05-09T04:22:02.408Z,95.50
2019-05-09T04:27:12.104Z,95.40
2019-05-09T04:32:15.450Z,95.90
2019-05-09T04:37:19.347Z,96.00
2019-05-09T04:42:22.536Z,96.70
2019-05-09T04:47:27.842Z,96.20
2019-05-09T04:52:31.044Z,95.90
2019-05-09T04:57:34.213Z,96.00
2019-05-09T05:02:41.977Z,95.80
2019-05-09T05:07:45.350Z,95.80
2019-05-09T05:12:48.769Z,95.80
2019-05-09T05:17:51.822Z,95.90
2019-05-09T05:23:08.288Z,95.80
2019-05-09T05:28:11.675Z,95.90
2019-05-09T05:33:53.949Z,95.90
2019-05-09T05:38:58.516Z,96.00
2019-05-09T05:44:02.012Z,96.60
2019-05-09T05:49:05.094Z,96.80
2019-05-09T05:54:08.414Z,95.90
2019-05-09T05:59:11.431Z,95.50
2019-05-09T06:04:14.756Z,95.00
2019-05-09T06:09:19.042Z,94.10
2019-05-09T06:14:22.298Z,92.50
2019-05-09T06:19:28.422Z,92.70
2019-05-09T06:24:30.728Z,92.30
2019-05-09T06:29:33.730Z,92.10
2019-05-09T06:34:41.348Z,91.40
2019-05-09T06:45:12.641Z,89.20
2019-05-09T06:50:18.469Z,81.40
2019-05-09T06:55:21.691Z,69.90
2019-05-09T07:00:37.958Z,76.30
2019-05-09T07:05:57.756Z,68.80
2019-05-09T07:11:01.166Z,70.20
2019-05-09T07:16:04.301Z,65.50
2019-05-09T07:21:08.263Z,61.50
2019-05-09T07:26:17.862Z,59.80
2019-05-09T07:31:34.823Z,59.20
2019-05-09T07:36:38.484Z,58.70
2019-05-09T07:41:41.917Z,57.60
2019-05-09T07:46:52.163Z,57.40
2019-05-09T07:51:55.264Z,56.60
2019-05-09T07:56:58.391Z,53.00
2019-05-09T08:02:01.458Z,54.70
2019-05-09T08:07:04.600Z,50.70
2019-05-09T08:12:08.052Z,55.20
2019-05-09T08:17:11.400Z,52.30
2019-05-09T08:22:14.469Z,55.40
2019-05-09T08:27:17.684Z,59.30
2019-05-09T08:32:21.071Z,60.60
2019-05-09T08:37:24.596Z,60.70
2019-05-09T08:42:29.368Z,58.90
2019-05-09T08:47:32.876Z,59.70
2019-05-09T08:52:37.644Z,53.80
2019-05-09T08:57:40.984Z,53.10
2019-05-09T09:02:44.039Z,54.90
2019-05-09T09:07:48.682Z,55.40
2019-05-09T09:12:52.179Z,60.70
2019-05-09T09:17:57.663Z,55.40
2019-05-09T09:23:00.146Z,52.00
2019-05-09T09:28:03.250Z,52.80
2019-05-09T09:33:09.107Z,58.00
2019-05-09T09:38:11.443Z,56.70
2019-05-09T09:43:14.827Z,57.80
2019-05-09T09:48:21.777Z,54.80
2019-05-09T09:53:27.705Z,58.10
2019-05-09T09:58:29.757Z,50.50
2019-05-09T10:03:35.351Z,54.30
2019-05-09T10:08:40.069Z,54.90
2019-05-09T10:13:44.737Z,50.40
2019-05-09T10:19:01.975Z,50.40
2019-05-09T10:24:05.295Z,50.60
2019-05-09T10:29:08.401Z,50.10
2019-05-09T10:34:11.499Z,51.20
2019-05-09T10:39:14.813Z,54.60
2019-05-09T10:44:22.563Z,51.90
2019-05-09T10:49:25.550Z,48.00
2019-05-09T10:54:28.614Z,47.00
2019-05-09T10:59:31.754Z,45.70
2019-05-09T11:04:37.548Z,42.70
2019-05-09T11:09:40.261Z,46.90
2019-05-09T11:14:43.314Z,40.90
2019-05-09T11:19:48.282Z,42.70
2019-05-09T11:24:51.773Z,42.60
2019-05-09T11:29:57.600Z,45.90
2019-05-09T11:34:59.891Z,44.20
2019-05-09T11:40:03.121Z,43.70
2019-05-09T11:45:07.632Z,46.30
2019-05-09T11:50:11.012Z,46.50
2019-05-09T11:55:28.531Z,49.30
2019-05-09T12:00:19.014Z,48.90
2019-05-09T12:05:22.158Z,49.60
2019-05-09T12:10:25.228Z,51.00
2019-05-09T12:15:29.074Z,49.70
2019-05-09T12:20:33.090Z,51.40
2019-05-09T12:25:38.456Z,51.70
2019-05-09T12:30:41.258Z,52.80
2019-05-09T12:35:44.490Z,52.80
2019-05-09T12:40:48.192Z,52.70
2019-05-09T12:45:51.588Z,52.90
2019-05-09T12:50:54.838Z,54.00
2019-05-09T12:56:00.887Z,54.50
2019-05-09T13:01:04.359Z,54.30
2019-05-09T13:06:08.221Z,55.10
2019-05-09T13:11:11.793Z,53.80
2019-05-09T13:16:50.768Z,54.00
2019-05-09T13:21:51.205Z,55.30
2019-05-09T13:26:54.329Z,56.50
2019-05-09T13:31:57.793Z,56.20
2019-05-09T13:37:00.941Z,56.80
2019-05-09T13:42:04.011Z,57.60
2019-05-09T13:47:10.639Z,57.70
2019-05-09T13:52:11.855Z,57.70
2019-05-09T13:57:14.999Z,58.00
2019-05-09T14:02:19.078Z,57.30
2019-05-09T14:07:22.613Z,57.30
2019-05-09T14:12:28.915Z,58.20
2019-05-09T14:17:48.271Z,56.70
2019-05-09T14:22:38.576Z,54.90
2019-05-09T14:27:42.239Z,55.90
2019-05-09T14:32:45.240Z,56.20
2019-05-09T14:37:48.876Z,57.50
2019-05-09T14:42:52.200Z,56.80
2019-05-09T14:47:55.385Z,56.90
2019-05-09T14:52:58.562Z,58.40
2019-05-09T14:58:01.562Z,59.00
2019-05-09T15:03:04.628Z,61.30
2019-05-09T15:08:08.488Z,61.30
2019-05-09T15:13:11.486Z,62.40
2019-05-09T15:18:14.556Z,62.40
2019-05-09T15:23:19.629Z,62.50
2019-05-09T15:28:22.295Z,63.80
2019-05-09T15:33:27.411Z,65.40
2019-05-09T15:38:30.420Z,66.00
2019-05-09T15:43:33.741Z,66.70
2019-05-09T15:48:38.126Z,66.90
2019-05-09T15:53:41.303Z,68.10
2019-05-09T15:58:44.612Z,67.80
2019-05-09T16:03:48.534Z,67.70
2019-05-09T16:08:52.035Z,67.90
2019-05-09T16:13:55.158Z,67.90
2019-05-09T16:18:58.490Z,68.30
2019-05-09T16:24:01.560Z,69.40
2019-05-09T16:29:04.745Z,70.30
2019-05-09T16:34:09.456Z,72.50
2019-05-09T16:39:13.240Z,79.20
2019-05-09T16:44:18.274Z,81.00
2019-05-09T16:49:25.797Z,82.60
2019-05-09T16:54:29.774Z,83.80
2019-05-09T16:59:32.963Z,83.90
2019-05-09T17:04:38.741Z,83.70
2019-05-09T17:09:43.843Z,83.90
2019-05-09T17:14:59.394Z,85.20
2019-05-09T17:20:00.925Z,88.10
2019-05-09T17:25:04.087Z,88.20
2019-05-09T17:30:08.614Z,89.80
2019-05-09T17:35:12.467Z,90.00
2019-05-09T17:40:16.912Z,90.50
2019-05-09T17:45:20.437Z,90.30
2019-05-09T17:50:23.568Z,91.20
2019-05-09T17:55:26.737Z,90.50
2019-05-09T18:00:38.028Z,90.60
2019-05-09T18:05:41.656Z,90.40
2019-05-09T18:10:45.005Z,90.60
2019-05-09T18:15:48.971Z,90.90
2019-05-09T18:20:52.054Z,91.50
2019-05-09T18:25:55.197Z,91.30
2019-05-09T18:31:07.954Z,91.50
2019-05-09T18:36:12.748Z,91.80
2019-05-09T18:41:17.785Z,91.90
2019-05-09T18:46:21.677Z,92.20
2019-05-09T18:51:28.573Z,92.10
2019-05-09T18:56:30.744Z,92.30
2019-05-09T19:01:34.010Z,92.80
2019-05-09T19:06:39.864Z,93.80
2019-05-09T19:11:42.327Z,94.10
2019-05-09T19:17:00.507Z,93.90
2019-05-09T19:22:06.585Z,93.90
2019-05-09T19:27:09.098Z,93.60
2019-05-09T19:32:12.242Z,93.60
2019-05-09T19:37:15.304Z,93.30
2019-05-09T19:42:18.688Z,93.20
2019-05-09T19:47:21.797Z,93.20
2019-05-09T19:52:37.274Z,93.10
2019-05-09T19:57:29.919Z,93.40
2019-05-09T20:02:33.074Z,93.70
2019-05-09T20:07:36.395Z,93.60
2019-05-09T20:12:47.820Z,94.00
2019-05-09T20:17:51.225Z,94.20
2019-05-09T20:22:54.283Z,94.70
2019-05-09T20:27:57.402Z,94.90
2019-05-09T20:33:00.965Z,94.30
2019-05-09T20:38:04.433Z,94.30
2019-05-09T20:43:07.921Z,93.90
2019-05-09T20:48:11.443Z,93.80
2019-05-09T20:53:17.022Z,94.00
2019-05-09T20:58:20.211Z,94.00
2019-05-09T21:03:23.459Z,94.10
2019-05-09T21:08:27.116Z,93.70
2019-05-09T21:13:30.364Z,94.00
2019-05-09T21:18:33.974Z,94.50
2019-05-09T21:23:37.423Z,94.20
2019-05-09T21:28:41.093Z,94.30
2019-05-09T21:33:44.625Z,94.60
2019-05-09T21:38:47.595Z,94.50
2019-05-09T21:43:50.678Z,94.70
2019-05-09T21:48:53.923Z,94.40
2019-05-09T21:53:57.065Z,94.30
2019-05-09T21:59:00.158Z,94.50
2019-05-09T22:04:03.211Z,94.00
2019-05-09T22:09:08.718Z,94.10
2019-05-09T22:14:11.853Z,94.50
2019-05-09T22:19:15.286Z,94.10
2019-05-09T22:24:18.946Z,93.80
2019-05-09T22:29:21.947Z,93.50
2019-05-09T22:34:25.422Z,93.80
2019-05-09T22:39:28.710Z,93.70
2019-05-09T22:44:31.720Z,94.00
2019-05-09T22:49:35.063Z,93.80
2019-05-09T22:54:38.035Z,94.00
2019-05-09T22:59:41.531Z,94.40
2019-05-09T23:04:45.134Z,94.20
2019-05-09T23:09:48.227Z,94.30
2019-05-09T23:14:51.293Z,94.00
2019-05-09T23:19:54.426Z,94.20
2019-05-09T23:24:58.063Z,94.30
2019-05-09T23:30:01.147Z,94.40
2019-05-09T23:35:04.394Z,94.40
2019-05-09T23:40:08.717Z,94.40
2019-05-09T23:45:11.923Z,94.50
2019-05-09T23:50:15.286Z,94.80
2019-05-09T23:55:36.774Z,94.50
